Time;durP1;ratioP1;P1;durP2;ratioP2;P2;SDS_P1;SDS_P2;PMS_P1;PMS_P2;Temp;Humidity;BMP_temperature;BMP_pressure;BME280_temperature;BME280_humidity;BME280_pressure;Samples;Min_cycle;Max_cycle;Signal;HPM_P1;HPM_P2
2022/12/11 00:00:29;;;;;;;10.70;7.10;;;;;;;-9.38;100.00;92150.25;2123411;27;20412;-76
2022/12/11 00:01:30;;;;;;;9.70;6.93;;;;;;;-9.47;100.00;92143.63;2123216;27;20451;-75
2022/12/11 00:02:31;;;;;;;11.20;7.28;;;;;;;-9.59;100.00;92148.72;2122856;27;20070;-74
2022/12/11 00:03:32;;;;;;;12.68;7.82;;;;;;;-9.64;100.00;92149.66;2124586;27;20034;-75
2022/12/11 00:04:33;;;;;;;12.95;7.93;;;;;;;-9.55;100.00;92150.34;2131455;27;20022;-75
2022/12/11 00:05:37;;;;;;;13.98;7.38;;;;;;;-9.54;100.00;92148.53;2131980;27;20023;-74
2022/12/11 00:06:38;;;;;;;10.43;7.25;;;;;;;-9.53;100.00;92148.19;2132040;27;20019;-75
2022/12/11 00:07:39;;;;;;;11.35;7.55;;;;;;;-9.67;100.00;92152.88;2131869;27;20424;-75
2022/12/11 00:08:40;;;;;;;10.23;6.93;;;;;;;-9.65;100.00;92148.16;2130432;27;20442;-75
2022/12/11 00:09:40;;;;;;;12.25;7.07;;;;;;;-9.60;100.00;92147.22;2131038;27;20029;-75
2022/12/11 00:10:49;;;;;;;14.30;7.65;;;;;;;-9.63;100.00;92143.41;2131553;27;20019;-75
2022/12/11 00:11:49;;;;;;;12.63;7.53;;;;;;;-9.76;100.00;92137.41;2131747;27;20114;-75
2022/12/11 00:12:51;;;;;;;13.30;7.25;;;;;;;-9.72;100.00;92142.72;2122749;27;20424;-75
2022/12/11 00:13:52;;;;;;;13.55;7.07;;;;;;;-9.65;100.00;92140.41;2112846;27;20027;-75
2022/12/11 00:14:53;;;;;;;14.93;7.95;;;;;;;-9.68;100.00;92131.44;2122656;27;20413;-75
2022/12/11 00:15:54;;;;;;;12.68;7.90;;;;;;;-9.82;100.00;92137.91;2131336;27;20449;-74
2022/12/11 00:16:55;;;;;;;13.80;7.53;;;;;;;-9.78;100.00;92129.22;2126334;27;20389;-74
2022/12/11 00:17:57;;;;;;;11.65;7.28;;;;;;;-9.80;100.00;92135.75;2105404;28;20472;-76
2022/12/11 00:18:58;;;;;;;15.30;8.00;;;;;;;-9.79;100.00;92137.28;2102278;28;20564;-76
2022/12/11 00:19:58;;;;;;;13.77;7.50;;;;;;;-9.85;100.00;92139.28;2122426;27;20416;-75
2022/12/11 00:21:00;;;;;;;14.30;7.88;;;;;;;-9.84;100.00;92133.03;2131762;27;20427;-75
2022/12/11 00:22:01;;;;;;;13.60;7.85;;;;;;;-9.79;100.00;92134.69;2131251;27;20031;-75
2022/12/11 00:23:04;;;;;;;11.90;7.47;;;;;;;-9.79;100.00;92134.69;2122119;27;20416;-75
2022/12/11 00:24:05;;;;;;;13.93;7.72;;;;;;;-9.82;100.00;92143.84;2121408;27;20566;-75
2022/12/11 00:25:07;;;;;;;13.18;7.57;;;;;;;-9.86;100.00;92134.44;2131671;27;20818;-75
2022/12/11 00:26:12;;;;;;;13.45;8.48;;;;;;;-9.84;100.00;92135.63;2131902;27;20465;-75
2022/12/11 00:27:13;;;;;;;15.50;8.30;;;;;;;-9.91;100.00;92138.72;2122551;27;20931;-75
2022/12/11 00:28:17;;;;;;;15.85;8.90;;;;;;;-9.81;100.00;92142.00;2122299;27;20420;-75
2022/12/11 00:29:18;;;;;;;17.80;9.63;;;;;;;-9.91;100.00;92145.72;2129682;27;21244;-75
2022/12/11 00:30:19;;;;;;;15.30;8.38;;;;;;;-9.91;100.00;92148.31;2122519;27;20459;-75
2022/12/11 00:31:21;;;;;;;18.38;9.13;;;;;;;-9.90;100.00;92142.81;2122572;27;20026;-76
2022/12/11 00:32:22;;;;;;;16.63;9.18;;;;;;;-9.86;100.00;92142.94;2131963;27;20022;-75
2022/12/11 00:33:25;;;;;;;15.70;8.63;;;;;;;-9.86;100.00;92145.53;2131697;27;20474;-76
2022/12/11 00:34:26;;;;;;;16.02;8.40;;;;;;;-9.84;100.00;92135.63;2123589;27;20063;-76
2022/12/11 00:35:27;;;;;;;18.50;9.50;;;;;;;-9.91;100.00;92135.38;2122939;27;20448;-76
2022/12/11 00:36:28;;;;;;;16.45;9.23;;;;;;;-9.95;100.00;92139.66;2122896;27;20449;-76
2022/12/11 00:37:29;;;;;;;18.20;8.95;;;;;;;-9.97;100.00;92141.78;2123132;27;20130;-76
2022/12/11 00:38:30;;;;;;;17.13;9.38;;;;;;;-10.09;100.00;92147.63;2122543;27;20112;-76
2022/12/11 00:39:31;;;;;;;16.30;8.45;;;;;;;-9.97;100.00;92136.59;2121290;27;20115;-75
2022/12/11 00:40:36;;;;;;;17.35;9.05;;;;;;;-9.92;100.00;92149.34;2122074;27;20019;-76
2022/12/11 00:41:37;;;;;;;17.52;8.77;;;;;;;-10.01;100.00;92144.22;2122183;27;20065;-75
2022/12/11 00:42:38;;;;;;;18.35;9.52;;;;;;;-10.01;100.00;92146.81;2131394;27;20432;-75
2022/12/11 00:43:39;;;;;;;17.23;9.25;;;;;;;-10.14;100.00;92142.63;2131477;27;20041;-75
2022/12/11 00:44:40;;;;;;;12.63;7.82;;;;;;;-10.17;100.00;92141.44;2122997;27;20035;-75
2022/12/11 00:45:43;;;;;;;18.40;9.75;;;;;;;-10.06;100.00;92148.81;2122683;27;20431;-76
2022/12/11 00:46:47;;;;;;;14.27;8.48;;;;;;;-10.04;100.00;92157.03;2122481;27;20440;-75
2022/12/11 00:47:48;;;;;;;16.48;9.07;;;;;;;-9.89;100.00;92153.91;2122658;27;20432;-75
2022/12/11 00:48:49;;;;;;;17.05;8.98;;;;;;;-9.95;100.00;92150.75;2122758;27;20031;-75
2022/12/11 00:49:50;;;;;;;17.42;8.90;;;;;;;-10.22;100.00;92157.09;2120246;27;20059;-76
2022/12/11 00:50:50;;;;;;;14.82;8.07;;;;;;;-10.13;100.00;92153.72;2113628;28;20039;-76
2022/12/11 00:51:51;;;;;;;17.90;8.98;;;;;;;-10.14;100.00;92158.13;2121659;27;20461;-76
2022/12/11 00:52:52;;;;;;;13.65;7.80;;;;;;;-10.17;100.00;92151.75;2131253;27;20038;-76
2022/12/11 00:53:53;;;;;;;13.52;7.80;;;;;;;-10.24;100.00;92161.09;2131272;27;20045;-76
2022/12/11 00:54:54;;;;;;;15.07;7.95;;;;;;;-10.20;100.00;92156.78;2121339;27;20019;-76
2022/12/11 00:55:55;;;;;;;14.82;8.20;;;;;;;-10.17;100.00;92159.50;2122261;27;20140;-76
2022/12/11 00:56:56;;;;;;;14.35;8.43;;;;;;;-10.23;100.00;92157.41;2130622;27;20022;-76
2022/12/11 00:57:57;;;;;;;12.38;7.97;;;;;;;-10.26;100.00;92166.56;2130728;27;20025;-75
2022/12/11 00:58:58;;;;;;;15.10;8.32;;;;;;;-10.29;100.00;92163.84;2131141;27;20030;-75
2022/12/11 00:59:59;;;;;;;15.07;8.60;;;;;;;-10.31;100.00;92166.00;2122499;27;20436;-76
2022/12/11 01:01:11;;;;;;;15.50;7.78;;;;;;;-10.28;100.00;92173.09;2122797;27;20529;-76
2022/12/11 01:02:12;;;;;;;13.10;7.38;;;;;;;-10.30;100.00;92167.50;2122960;27;20101;-76
2022/12/11 01:03:15;;;;;;;11.70;7.60;;;;;;;-10.26;100.00;92168.41;2122751;27;20444;-76
2022/12/11 01:04:17;;;;;;;16.08;7.97;;;;;;;-10.40;100.00;92171.19;2123997;27;20432;-76
2022/12/11 01:05:18;;;;;;;14.05;7.82;;;;;;;-10.35;100.00;92178.75;2124506;27;20480;-75
2022/12/11 01:06:22;;;;;;;16.70;7.40;;;;;;;-10.40;100.00;92178.94;2122693;27;20417;-75
2022/12/11 01:07:23;;;;;;;12.45;7.75;;;;;;;-10.32;100.00;92180.72;2122909;27;20451;-75
2022/12/11 01:08:24;;;;;;;12.55;7.43;;;;;;;-10.38;100.00;92184.53;2122910;27;20507;-75
2022/12/11 01:10:25;;;;;;;12.27;7.60;;;;;;;-10.34;100.00;92175.09;2113444;28;20472;-76
2022/12/11 01:11:11;;;;;;;14.18;7.40;;;;;;;-10.49;100.00;92188.50;2100728;28;20036;-76
2022/12/11 01:12:12;;;;;;;12.77;7.07;;;;;;;-10.45;100.00;92174.69;2114323;28;20471;-75
2022/12/11 01:13:14;;;;;;;10.43;6.72;;;;;;;-10.52;100.00;92178.81;2114249;28;20433;-76
2022/12/11 01:14:15;;;;;;;12.10;7.47;;;;;;;-10.52;100.00;92184.72;2114439;27;20433;-76
2022/12/11 01:15:18;;;;;;;13.73;7.57;;;;;;;-10.57;100.00;92190.06;2120070;27;20977;-76
2022/12/11 01:16:19;;;;;;;12.02;7.70;;;;;;;-10.62;100.00;92187.66;2113897;28;20430;-75
2022/12/11 01:17:20;;;;;;;11.20;7.00;;;;;;;-10.64;100.00;92192.34;2112617;28;20425;-76
2022/12/11 01:18:21;;;;;;;11.38;7.38;;;;;;;-10.71;100.00;92185.09;2104905;28;20035;-76
2022/12/11 01:19:22;;;;;;;11.40;6.72;;;;;;;-10.60;100.00;92193.25;2114144;27;20124;-76
2022/12/11 01:20:24;;;;;;;11.52;7.53;;;;;;;-10.54;100.00;92196.41;2121373;27;20056;-75
2022/12/11 01:21:25;;;;;;;10.77;7.07;;;;;;;-10.57;100.00;92197.81;2122200;27;20072;-75
2022/12/11 01:22:26;;;;;;;11.13;6.75;;;;;;;-10.53;100.00;92192.78;2130805;27;20521;-75
2022/12/11 01:23:27;;;;;;;10.73;7.13;;;;;;;-10.50;100.00;92197.31;2130863;27;20027;-75
2022/12/11 01:24:28;;;;;;;10.80;7.38;;;;;;;-10.38;100.00;92200.03;2130136;27;20014;-76
2022/12/11 01:25:29;;;;;;;11.05;6.80;;;;;;;-10.41;100.00;92198.81;2127905;27;20553;-75
2022/12/11 01:26:30;;;;;;;13.48;7.07;;;;;;;-10.34;100.00;92193.19;2122513;27;20023;-75
2022/12/11 01:27:31;;;;;;;11.63;7.13;;;;;;;-10.35;100.00;92198.66;2122292;27;20412;-76
2022/12/11 01:28:32;;;;;;;11.65;6.70;;;;;;;-10.30;100.00;92195.91;2122803;27;20144;-75
2022/12/11 01:29:34;;;;;;;11.45;6.88;;;;;;;-10.29;100.00;92198.19;2123549;27;20807;-76
2022/12/11 01:30:35;;;;;;;11.55;7.03;;;;;;;-10.37;100.00;92205.94;2130130;27;20460;-75
2022/12/11 01:31:37;;;;;;;10.43;6.95;;;;;;;-10.38;100.00;92202.63;2130931;27;20084;-75
2022/12/11 01:32:38;;;;;;;9.82;6.85;;;;;;;-10.30;100.00;92198.50;2121759;27;21036;-75
2022/12/11 01:33:39;;;;;;;10.23;6.85;;;;;;;-10.24;100.00;92200.56;2122244;27;20420;-76
2022/12/11 01:34:40;;;;;;;9.82;6.97;;;;;;;-10.20;100.00;92193.72;2128556;27;20350;-76
2022/12/11 01:35:41;;;;;;;14.40;7.40;;;;;;;-10.11;100.00;92192.91;2122121;27;20443;-76
2022/12/11 01:36:42;;;;;;;9.40;6.18;;;;;;;-10.10;100.00;92202.19;2113280;28;20962;-77
2022/12/11 01:37:45;;;;;;;12.63;7.63;;;;;;;-10.09;100.00;92195.97;2112849;28;20361;-75
2022/12/11 01:38:47;;;;;;;11.10;6.28;;;;;;;-10.07;100.00;92197.16;2122596;27;20432;-76
2022/12/11 01:39:48;;;;;;;10.45;6.63;;;;;;;-9.86;100.00;92199.06;2123170;27;20432;-75
2022/12/11 01:40:50;;;;;;;12.43;7.35;;;;;;;-9.94;100.00;92192.84;2130458;27;20440;-76
2022/12/11 01:41:56;;;;;;;9.43;6.90;;;;;;;-9.93;100.00;92189.94;2130937;27;20022;-75
2022/12/11 01:42:57;;;;;;;10.75;6.65;;;;;;;-9.85;100.00;92190.97;2130503;27;20505;-75
2022/12/11 01:44:03;;;;;;;10.55;5.85;;;;;;;-9.99;100.00;92193.78;2131046;27;20529;-76
2022/12/11 01:45:26;;;;;;;11.95;6.78;;;;;;;-9.99;100.00;92193.03;2125710;27;20354;-76
2022/12/11 01:46:27;;;;;;;10.65;6.50;;;;;;;-9.71;100.00;92196.69;2122216;27;20962;-76
2022/12/11 01:47:28;;;;;;;12.13;7.35;;;;;;;-9.45;100.00;92193.94;2122388;27;20460;-76
2022/12/11 01:48:31;;;;;;;11.10;7.20;;;;;;;-9.57;100.00;92200.88;2122162;27;20431;-76
2022/12/11 01:49:33;;;;;;;12.65;7.35;;;;;;;-9.56;100.00;92200.56;2122424;27;20082;-75
2022/12/11 01:50:43;;;;;;;12.43;7.80;;;;;;;-9.61;100.00;92199.97;2130440;27;20998;-76
2022/12/11 01:51:57;;;;;;;12.95;7.20;;;;;;;-9.54;100.00;92210.59;2113833;28;20425;-75
2022/12/11 01:52:59;;;;;;;12.73;7.40;;;;;;;-9.45;100.00;92208.72;2113326;28;20046;-75
2022/12/11 01:54:06;;;;;;;11.68;6.97;;;;;;;-9.50;100.00;92214.81;2104498;28;20448;-76
2022/12/11 01:55:08;;;;;;;10.95;7.03;;;;;;;-9.61;100.00;92218.06;2109889;27;20441;-75
2022/12/11 01:56:11;;;;;;;11.23;7.05;;;;;;;-9.58;100.00;92215.63;2121979;27;20471;-75
2022/12/11 01:57:14;;;;;;;12.25;7.18;;;;;;;-9.60;100.00;92217.03;2122385;27;20409;-75
2022/12/11 01:58:16;;;;;;;13.40;7.55;;;;;;;-9.49;100.00;92223.34;2122087;27;20492;-76
2022/12/11 01:59:22;;;;;;;12.23;7.22;;;;;;;-9.52;100.00;92218.81;2113298;28;20421;-76
2022/12/11 02:00:23;;;;;;;10.80;6.82;;;;;;;-9.52;100.00;92216.97;2119410;27;20428;-76
2022/12/11 02:01:32;;;;;;;13.20;7.45;;;;;;;-9.54;100.00;92216.53;2127222;27;20525;-76
2022/12/11 02:02:33;;;;;;;12.68;6.88;;;;;;;-9.43;100.00;92211.75;2122396;27;20486;-76
2022/12/11 02:03:34;;;;;;;13.20;7.70;;;;;;;-9.44;100.00;92223.16;2113026;28;20522;-76
2022/12/11 02:04:37;;;;;;;15.68;7.78;;;;;;;-9.35;100.00;92223.84;2113179;28;20019;-76
2022/12/11 02:05:39;;;;;;;14.43;8.10;;;;;;;-9.31;100.00;92211.81;2120403;27;21146;-76
2022/12/11 02:06:46;;;;;;;14.57;8.05;;;;;;;-9.30;100.00;92213.34;2120967;27;20458;-76
2022/12/11 02:07:51;;;;;;;13.70;8.05;;;;;;;-9.35;100.00;92213.50;2130457;27;20430;-76
2022/12/11 02:08:52;;;;;;;12.45;7.68;;;;;;;-9.35;100.00;92218.69;2121156;27;20436;-76
2022/12/11 02:09:53;;;;;;;13.82;8.52;;;;;;;-9.31;100.00;92216.22;2121668;27;20496;-76
2022/12/11 02:11:15;;;;;;;14.38;8.05;;;;;;;-9.36;100.00;92217.19;2130927;27;20101;-76
2022/12/11 02:12:28;;;;;;;14.52;8.05;;;;;;;-9.28;100.00;92211.19;2130967;27;20436;-75
2022/12/11 02:13:43;;;;;;;14.52;7.75;;;;;;;-9.34;100.00;92209.88;2130280;27;20460;-75
2022/12/11 02:17:20;;;;;;;;;;;;;;;-9.47;100.00;92211.63;2139675;27;20551;-75
2022/12/11 02:18:26;;;;;;;12.43;6.60;;;;;;;-9.46;100.00;92212.38;2138491;27;19922;-76
2022/12/11 02:19:46;;;;;;;13.80;7.63;;;;;;;-9.43;100.00;92206.59;2137849;27;20795;-75
2022/12/11 02:20:56;;;;;;;14.82;8.02;;;;;;;-9.40;100.00;92213.69;2137976;27;20540;-76
2022/12/11 02:22:01;;;;;;;12.52;7.95;;;;;;;-9.46;100.00;92218.31;2137762;27;20790;-76
2022/12/11 02:23:11;;;;;;;13.65;7.72;;;;;;;-9.46;100.00;92217.56;2138497;27;20050;-75
2022/12/11 02:24:30;;;;;;;12.93;7.75;;;;;;;-9.44;100.00;92217.97;2127917;27;20512;-76
2022/12/11 02:25:34;;;;;;;15.70;8.02;;;;;;;-9.42;100.00;92221.03;2131231;27;20059;-75
2022/12/11 02:27:19;;;;;;;13.40;8.57;;;;;;;-9.55;100.00;92222.00;2138355;27;20921;-76
2022/12/11 02:28:30;;;;;;;14.82;7.45;;;;;;;-9.53;100.00;92212.09;2120822;28;20437;-75
2022/12/11 02:29:38;;;;;;;15.18;7.90;;;;;;;-9.48;100.00;92219.69;2122179;27;20460;-76
2022/12/11 02:30:41;;;;;;;12.88;8.18;;;;;;;-9.54;100.00;92215.75;2134758;27;20444;-76
2022/12/11 02:32:02;;;;;;;15.07;8.50;;;;;;;-9.58;100.00;92214.88;2137988;27;20414;-76
2022/12/11 02:33:04;;;;;;;14.18;7.65;;;;;;;-9.69;100.00;92210.06;2138234;27;20921;-76
2022/12/11 02:34:22;;;;;;;13.20;7.72;;;;;;;-9.70;100.00;92221.50;2138169;27;20488;-76
2022/12/11 02:35:31;;;;;;;14.48;7.82;;;;;;;-9.75;100.00;92215.72;2137585;27;20452;-76
2022/12/11 02:36:37;;;;;;;10.85;7.35;;;;;;;-9.74;100.00;92209.50;2138396;27;20436;-76
2022/12/11 02:37:42;;;;;;;12.88;7.75;;;;;;;-9.83;100.00;92212.13;2137528;27;20532;-76
2022/12/11 02:38:49;;;;;;;14.23;8.10;;;;;;;-9.88;100.00;92209.69;2138003;27;20454;-76
2022/12/11 02:39:53;;;;;;;13.95;8.25;;;;;;;-9.89;100.00;92215.94;2138153;27;20901;-76
2022/12/11 02:40:56;;;;;;;15.07;8.60;;;;;;;-9.90;100.00;92211.84;2137494;27;20436;-76
2022/12/11 02:41:59;;;;;;;14.45;8.20;;;;;;;-9.85;100.00;92211.66;2138139;27;20424;-76
2022/12/11 02:43:05;;;;;;;14.02;7.88;;;;;;;-9.84;100.00;92213.16;2137200;27;20496;-76
2022/12/11 02:44:09;;;;;;;13.20;7.82;;;;;;;-9.82;100.00;92215.47;2137768;27;20440;-76
2022/12/11 02:45:12;;;;;;;15.10;8.07;;;;;;;-9.80;100.00;92213.31;2128403;27;20785;-76
2022/12/11 02:46:15;;;;;;;12.45;7.25;;;;;;;-9.88;100.00;92217.44;2120811;27;20901;-76
2022/12/11 02:47:18;;;;;;;14.13;7.72;;;;;;;-9.81;100.00;92214.38;2129617;27;20420;-75
2022/12/11 02:48:23;;;;;;;16.10;8.15;;;;;;;-9.91;100.00;92215.50;2125784;27;20453;-76
2022/12/11 02:49:25;;;;;;;13.18;7.38;;;;;;;-9.96;100.00;92219.00;2128808;27;20880;-76
2022/12/11 02:50:27;;;;;;;15.50;8.20;;;;;;;-9.99;100.00;92216.28;2137282;27;20894;-76
2022/12/11 02:51:35;;;;;;;15.90;7.63;;;;;;;-9.97;100.00;92211.56;2137949;27;20442;-76
2022/12/11 02:52:38;;;;;;;13.05;7.45;;;;;;;-9.98;100.00;92215.22;2138292;27;20897;-76
2022/12/11 02:53:41;;;;;;;11.48;7.00;;;;;;;-10.01;100.00;92214.00;2137593;27;20435;-76
2022/12/11 02:54:43;;;;;;;13.73;8.30;;;;;;;-10.08;100.00;92212.97;2138024;27;20471;-76
2022/12/11 02:55:48;;;;;;;13.93;7.90;;;;;;;-10.08;100.00;92207.81;2137258;27;21000;-76
2022/12/11 02:56:57;;;;;;;12.63;7.85;;;;;;;-10.15;100.00;92209.03;2137826;27;20585;-76
2022/12/11 02:58:11;;;;;;;10.52;7.15;;;;;;;-10.18;100.00;92208.91;2128881;27;20427;-76
2022/12/11 02:59:22;;;;;;;13.57;7.90;;;;;;;-10.14;100.00;92212.38;2122443;27;20429;-76
2022/12/11 03:00:23;;;;;;;15.85;8.15;;;;;;;-10.24;100.00;92221.22;2129772;27;20448;-76
2022/12/11 03:01:25;;;;;;;12.65;7.75;;;;;;;-10.18;100.00;92212.25;2137501;27;20423;-76
2022/12/11 03:02:26;;;;;;;12.35;7.40;;;;;;;-10.24;100.00;92212.75;2138082;27;20052;-76
2022/12/11 03:03:28;;;;;;;12.82;7.82;;;;;;;-10.28;100.00;92210.03;2137551;27;20411;-76
2022/12/11 03:04:30;;;;;;;13.35;8.10;;;;;;;-10.23;100.00;92209.81;2138269;27;20449;-75
2022/12/11 03:05:31;;;;;;;13.93;8.20;;;;;;;-10.10;100.00;92209.94;2137556;27;20446;-76
2022/12/11 03:06:43;;;;;;;13.63;8.35;;;;;;;-10.21;100.00;92209.53;2137811;27;20420;-76
2022/12/11 03:07:44;;;;;;;13.45;8.18;;;;;;;-10.19;100.00;92212.53;2137967;27;20420;-76
2022/12/11 03:08:45;;;;;;;14.02;7.72;;;;;;;-10.30;100.00;92214.75;2138010;27;20426;-76
2022/12/11 03:09:47;;;;;;;13.90;7.82;;;;;;;-10.29;100.00;92216.25;2137967;27;20467;-76
2022/12/11 03:10:48;;;;;;;12.48;8.27;;;;;;;-10.32;100.00;92213.53;2137444;27;20418;-76
2022/12/11 03:11:49;;;;;;;13.50;8.00;;;;;;;-10.39;100.00;92214.00;2137916;27;20416;-76
2022/12/11 03:12:53;;;;;;;13.98;8.48;;;;;;;-10.47;100.00;92228.47;2128458;27;20109;-75
2022/12/11 03:13:54;;;;;;;14.45;7.75;;;;;;;-10.50;100.00;92229.06;2128206;27;20091;-76
2022/12/11 03:14:59;;;;;;;14.20;8.70;;;;;;;-10.53;100.00;92221.94;2137717;27;20948;-76
2022/12/11 03:16:06;;;;;;;13.40;7.68;;;;;;;-10.43;100.00;92226.78;2137093;27;20522;-76
2022/12/11 03:17:16;;;;;;;12.63;7.70;;;;;;;-10.38;100.00;92228.44;2137696;27;20524;-76
2022/12/11 03:18:35;;;;;;;13.25;7.80;;;;;;;-10.46;100.00;92226.63;2138125;27;20428;-77
2022/12/11 03:19:45;;;;;;;12.75;7.63;;;;;;;-10.48;100.00;92228.78;2137155;27;20070;-76
2022/12/11 03:20:57;;;;;;;14.10;7.63;;;;;;;-10.57;100.00;92223.63;2137460;27;20068;-76
2022/12/11 03:22:19;;;;;;;14.10;7.93;;;;;;;-10.57;100.00;92215.88;2137844;27;20034;-76
2022/12/11 03:23:31;;;;;;;16.08;7.60;;;;;;;-10.49;100.00;92215.09;2128580;27;20503;-76
2022/12/11 03:25:22;;;;;;;14.23;7.60;;;;;;;-10.46;100.00;92218.88;2129817;27;20456;-76
2022/12/11 03:26:23;;;;;;;12.68;6.57;;;;;;;-10.56;100.00;92225.13;2093200;28;20474;-76
2022/12/11 03:27:43;;;;;;;13.18;7.40;;;;;;;-10.55;100.00;92225.88;2094056;28;20430;-76
2022/12/11 03:28:48;;;;;;;;;;;;;;;-10.69;100.00;92220.91;2088879;28;21310;-76
2022/12/11 03:30:02;;;;;;;15.25;6.63;;;;;;;-10.64;100.00;92220.00;2088128;28;19955;-76
2022/12/11 03:31:10;;;;;;;10.85;7.03;;;;;;;-10.59;100.00;92219.81;2087304;28;20920;-76
2022/12/11 03:32:21;;;;;;;11.63;6.95;;;;;;;-10.67;100.00;92223.94;2117306;27;20476;-76
2022/12/11 03:33:28;;;;;;;12.38;6.97;;;;;;;-10.68;100.00;92219.84;2125125;27;20428;-75
2022/12/11 03:34:40;;;;;;;14.38;7.97;;;;;;;-10.74;100.00;92221.06;2121874;27;20776;-77
2022/12/11 03:35:46;;;;;;;12.00;7.15;;;;;;;-10.80;100.00;92217.88;2116019;27;20482;-77
2022/12/11 03:36:50;;;;;;;13.95;7.43;;;;;;;-10.81;100.00;92224.09;2122548;27;20464;-76
2022/12/11 03:37:53;;;;;;;11.85;7.32;;;;;;;-10.84;100.00;92214.41;2130753;27;20557;-76
2022/12/11 03:39:00;;;;;;;10.65;7.18;;;;;;;-10.80;100.00;92223.03;2131731;27;20527;-76
2022/12/11 03:40:09;;;;;;;16.00;7.88;;;;;;;-10.83;100.00;92218.50;2131343;27;20667;-76
2022/12/11 03:41:13;;;;;;;14.90;7.32;;;;;;;-10.87;100.00;92217.59;2131219;27;20443;-76
2022/12/11 03:42:22;;;;;;;;;;;;;;;-10.82;100.00;92214.09;2132616;27;21075;-76
2022/12/11 03:43:25;;;;;;;12.05;6.53;;;;;;;-10.85;100.00;92218.03;2132088;27;20252;-76
2022/12/11 03:44:28;;;;;;;9.68;6.22;;;;;;;-10.84;100.00;92222.16;2122654;27;20759;-75
2022/12/11 03:45:30;;;;;;;12.10;6.75;;;;;;;-10.82;100.00;92214.09;2117320;27;20441;-77
2022/12/11 03:46:35;;;;;;;10.80;6.85;;;;;;;-10.92;100.00;92223.66;2127950;27;20977;-76
2022/12/11 03:47:38;;;;;;;13.15;7.15;;;;;;;-10.95;100.00;92223.50;2131963;27;20436;-76
2022/12/11 03:48:43;;;;;;;11.05;7.22;;;;;;;-10.97;100.00;92221.25;2132075;27;20504;-76
2022/12/11 03:49:46;;;;;;;13.18;6.80;;;;;;;-10.95;100.00;92223.50;2131782;27;20444;-76
2022/12/11 03:50:49;;;;;;;14.40;8.52;;;;;;;-10.98;100.00;92230.03;2131034;27;20443;-76
2022/12/11 03:51:55;;;;;;;11.05;6.93;;;;;;;-10.99;100.00;92225.94;2130949;27;21064;-76
2022/12/11 03:52:57;;;;;;;11.02;6.80;;;;;;;-10.94;100.00;92225.00;2122696;27;20806;-77
2022/12/11 03:54:00;;;;;;;11.70;7.47;;;;;;;-11.00;100.00;92227.00;2122748;27;20417;-77
2022/12/11 03:55:03;;;;;;;11.07;6.95;;;;;;;-10.97;100.00;92231.56;2131843;27;20465;-76
2022/12/11 03:56:07;;;;;;;14.23;6.90;;;;;;;-10.98;100.00;92226.69;2120643;27;20448;-75
2022/12/11 03:57:14;;;;;;;12.90;7.53;;;;;;;-10.99;100.00;92231.09;2114282;27;20432;-76
2022/12/11 03:58:15;;;;;;;13.40;7.38;;;;;;;-11.00;100.00;92224.41;2123064;27;20491;-76
2022/12/11 03:59:15;;;;;;;12.93;7.35;;;;;;;-11.02;100.00;92223.19;2131473;27;20519;-75
2022/12/11 04:00:19;;;;;;;11.70;7.07;;;;;;;-11.09;100.00;92225.50;2122561;27;21031;-75
2022/12/11 04:01:26;;;;;;;14.27;7.38;;;;;;;-11.06;100.00;92219.69;2122959;27;20031;-75
2022/12/11 04:02:27;;;;;;;14.95;8.05;;;;;;;-11.14;100.00;92221.25;2131593;27;20030;-75
2022/12/11 04:03:28;;;;;;;11.93;7.10;;;;;;;-11.08;100.00;92214.09;2131707;27;20424;-75
2022/12/11 04:04:29;;;;;;;12.25;8.05;;;;;;;-11.13;100.00;92217.59;2131378;27;20027;-75
2022/12/11 04:05:30;;;;;;;12.43;7.07;;;;;;;-11.13;100.00;92212.44;2131300;27;20022;-76
2022/12/11 04:06:31;;;;;;;11.48;7.18;;;;;;;-11.10;100.00;92216.25;2130425;27;20053;-75
2022/12/11 04:07:32;;;;;;;13.38;7.18;;;;;;;-11.11;100.00;92214.69;2131683;27;20041;-75
2022/12/11 04:08:33;;;;;;;11.93;7.60;;;;;;;-11.14;100.00;92216.09;2131781;27;20058;-75
2022/12/11 04:09:36;;;;;;;12.95;7.57;;;;;;;-11.12;100.00;92213.94;2131333;27;20026;-76
2022/12/11 04:10:38;;;;;;;12.40;7.95;;;;;;;-11.16;100.00;92218.94;2131530;27;20459;-76
2022/12/11 04:11:41;;;;;;;11.85;7.07;;;;;;;-11.14;100.00;92217.91;2130439;27;20813;-75
2022/12/11 04:12:42;;;;;;;12.40;7.87;;;;;;;-11.12;100.00;92216.53;2122240;27;20433;-75
2022/12/11 04:13:43;;;;;;;13.63;8.77;;;;;;;-11.22;100.00;92215.00;2122414;27;20491;-75
2022/12/11 04:15:02;;;;;;;13.50;8.27;;;;;;;-11.21;100.00;92223.50;2131445;27;20368;-75
2022/12/11 04:16:04;;;;;;;12.82;7.55;;;;;;;-11.22;100.00;92217.59;2131097;27;20751;-76
2022/12/11 04:17:05;;;;;;;15.40;8.17;;;;;;;-11.13;100.00;92222.00;2130737;27;20465;-77
2022/12/11 04:24:53;;;;;;;13.60;6.75;;;;;;;-11.16;100.00;92218.19;2122502;27;20430;-76
2022/12/11 04:25:54;;;;;;;11.83;6.87;;;;;;;-11.17;100.00;92216.69;2125284;27;20465;-75
2022/12/11 04:26:55;;;;;;;11.55;7.35;;;;;;;-11.17;100.00;92222.59;2130797;27;20019;-76
2022/12/11 04:27:56;;;;;;;11.50;7.25;;;;;;;-11.26;100.00;92232.16;2131141;27;20944;-75
2022/12/11 04:28:56;;;;;;;11.57;7.25;;;;;;;-11.25;100.00;92222.59;2131189;27;20050;-75
2022/12/11 04:29:57;;;;;;;13.33;7.27;;;;;;;-11.22;100.00;92230.47;2131651;27;20038;-76
2022/12/11 04:30:58;;;;;;;11.35;6.53;;;;;;;-11.26;100.00;92227.00;2131422;27;20449;-75
2022/12/11 04:32:00;;;;;;;13.07;7.20;;;;;;;-11.31;100.00;92228.97;2121059;27;20042;-75
2022/12/11 04:33:00;;;;;;;10.52;6.70;;;;;;;-11.25;100.00;92228.50;2113953;28;20450;-75
2022/12/11 04:34:02;;;;;;;11.70;6.90;;;;;;;-11.22;100.00;92235.63;2121865;27;20529;-76
2022/12/11 04:35:04;;;;;;;14.23;7.78;;;;;;;-11.21;100.00;92224.25;2131092;27;20941;-76
2022/12/11 04:36:06;;;;;;;13.45;7.45;;;;;;;-11.24;100.00;92224.84;2131628;27;20419;-74
2022/12/11 04:37:07;;;;;;;12.73;7.03;;;;;;;-11.26;100.00;92228.81;2128454;27;20448;-75
2022/12/11 04:38:08;;;;;;;12.05;7.07;;;;;;;-11.31;100.00;92219.41;2131324;27;20924;-76
2022/12/11 04:39:09;;;;;;;14.90;7.05;;;;;;;-11.11;100.00;92225.78;2122177;27;20412;-75
2022/12/11 04:40:14;;;;;;;12.52;7.20;;;;;;;-11.14;100.00;92223.06;2103959;28;20046;-76
2022/12/11 04:41:16;;;;;;;12.80;7.63;;;;;;;-11.09;100.00;92215.94;2114262;27;20032;-76
2022/12/11 04:42:17;;;;;;;12.27;7.20;;;;;;;-11.15;100.00;92217.13;2130233;27;20436;-75
2022/12/11 04:43:18;;;;;;;12.68;6.70;;;;;;;-11.19;100.00;92217.00;2131130;27;20436;-76
2022/12/11 04:44:19;;;;;;;11.13;7.37;;;;;;;-11.21;100.00;92220.91;2131387;27;20019;-75
2022/12/11 04:45:20;;;;;;;14.13;7.47;;;;;;;-11.19;100.00;92226.56;2130079;27;20127;-76
2022/12/11 04:46:40;;;;;;;11.40;6.22;;;;;;;-11.07;100.00;92228.50;2129675;27;20050;-76
2022/12/11 04:47:41;;;;;;;12.57;7.10;;;;;;;-11.12;100.00;92218.34;2130939;27;20447;-75
2022/12/11 04:48:42;;;;;;;12.25;7.20;;;;;;;-11.19;100.00;92217.00;2131205;27;20429;-75
2022/12/11 04:49:43;;;;;;;12.57;7.60;;;;;;;-11.20;100.00;92220.59;2131352;27;20035;-75
2022/12/11 04:50:45;;;;;;;12.18;6.60;;;;;;;-11.19;100.00;92221.41;2131252;27;20512;-76
2022/12/11 04:51:48;;;;;;;11.63;7.10;;;;;;;-11.08;100.00;92221.84;2130068;27;22101;-75
2022/12/11 04:52:49;;;;;;;11.10;6.27;;;;;;;-11.23;100.00;92223.06;2130982;27;20444;-75
2022/12/11 04:53:50;;;;;;;12.52;6.80;;;;;;;-11.22;100.00;92225.31;2130972;27;20027;-76
2022/12/11 04:54:51;;;;;;;12.90;6.90;;;;;;;-11.21;100.00;92223.50;2131415;27;20573;-75
2022/12/11 04:55:53;;;;;;;12.10;7.45;;;;;;;-11.12;100.00;92219.09;2131316;27;20547;-76
2022/12/11 04:56:54;;;;;;;12.10;7.05;;;;;;;-11.20;100.00;92215.44;2130568;27;20148;-76
2022/12/11 04:57:55;;;;;;;12.95;7.85;;;;;;;-11.19;100.00;92217.00;2130873;27;20494;-75
2022/12/11 04:58:56;;;;;;;10.80;6.78;;;;;;;-11.14;100.00;92216.09;2130800;27;20429;-76
2022/12/11 04:59:58;;;;;;;10.90;6.32;;;;;;;-11.17;100.00;92217.44;2131301;27;20068;-76
2022/12/11 05:00:59;;;;;;;12.57;7.35;;;;;;;-11.24;100.00;92206.03;2131496;27;20054;-75
2022/12/11 05:02:03;;;;;;;12.15;6.68;;;;;;;-11.28;100.00;92213.66;2130731;27;20516;-76
2022/12/11 05:03:04;;;;;;;10.35;6.40;;;;;;;-11.29;100.00;92209.53;2130807;27;21003;-76